Time;durP1;ratioP1;P1;durP2;ratioP2;P2;SDS_P1;SDS_P2;PMS_P1;PMS_P2;Temp;Humidity;BMP_temperature;BMP_pressure;BME280_temperature;BME280_humidity;BME280_pressure;Samples;Min_cycle;Max_cycle;Signal;HPM_P1;HPM_P2
2022/06/05 00:00:30;;;;;;;7.23;6.63;;;14.50;1.00;;;;;;6194929;28;20261;-55
2022/06/05 00:03:42;;;;;;;7.57;7.03;;;14.50;1.00;;;;;;6187306;28;20252;-57
2022/06/05 00:06:56;;;;;;;7.17;6.67;;;14.50;1.00;;;;;;6186060;28;20336;-57
2022/06/05 00:10:08;;;;;;;8.03;7.43;;;14.40;1.00;;;;;;6180563;28;20228;-57
2022/06/05 00:13:17;;;;;;;8.13;7.63;;;14.40;1.00;;;;;;6189476;28;20368;-54
2022/06/05 00:16:25;;;;;;;8.33;7.47;;;14.40;1.00;;;;;;6198584;28;20320;-57
2022/06/05 00:19:31;;;;;;;7.70;7.20;;;14.30;1.00;;;;;;6171236;28;20356;-56
2022/06/05 00:22:34;;;;;;;7.30;6.90;;;14.30;1.00;;;;;;6192051;28;20530;-57
2022/06/05 00:25:47;;;;;;;9.43;8.67;;;14.20;1.00;;;;;;6201882;28;20263;-56
2022/06/05 00:29:00;;;;;;;7.80;7.20;;;14.20;1.00;;;;;;6193341;28;20728;-58
2022/06/05 00:32:11;;;;;;;9.00;8.20;;;14.10;1.00;;;;;;6188722;28;20284;-55
2022/06/05 00:35:18;;;;;;;7.50;7.00;;;14.00;1.00;;;;;;6186673;28;20242;-62
2022/06/05 00:38:29;;;;;;;7.33;6.83;;;14.00;1.00;;;;;;6193669;28;20309;-54
2022/06/05 00:41:49;;;;;;;7.40;6.90;;;13.90;1.00;;;;;;6180783;28;20236;-57
2022/06/05 00:44:55;;;;;;;7.33;6.83;;;13.90;1.00;;;;;;6189190;28;20286;-58
2022/06/05 00:48:01;;;;;;;7.50;6.93;;;13.90;1.00;;;;;;6193903;28;20548;-58
2022/06/05 00:51:04;;;;;;;9.23;8.53;;;13.80;1.00;;;;;;6176424;28;20235;-56
2022/06/05 00:54:07;;;;;;;9.20;8.43;;;13.80;1.00;;;;;;6184776;28;20236;-56
2022/06/05 00:57:13;;;;;;;9.67;8.87;;;13.80;1.00;;;;;;6185653;28;20567;-55
2022/06/05 01:00:22;;;;;;;10.03;9.07;;;13.70;1.00;;;;;;6187124;28;20326;-56
2022/06/05 01:03:26;;;;;;;10.10;9.10;;;13.70;1.00;;;;;;6192471;28;20338;-57
2022/06/05 01:06:29;;;;;;;9.93;9.17;;;13.70;1.00;;;;;;6183577;28;20713;-55
2022/06/05 01:09:32;;;;;;;9.50;8.70;;;13.70;1.00;;;;;;6169054;28;20236;-58
2022/06/05 01:12:45;;;;;;;9.37;8.57;;;13.70;1.00;;;;;;6186581;28;20844;-56
2022/06/05 01:15:57;;;;;;;10.37;9.57;;;13.70;1.00;;;;;;6176920;28;20291;-63
2022/06/05 01:19:26;;;;;;;10.33;9.60;;;13.60;1.00;;;;;;6190713;28;20235;-58
2022/06/05 01:23:02;;;;;;;11.40;10.23;;;13.60;1.00;;;;;;6193494;28;20337;-55
2022/06/05 01:26:25;;;;;;;9.80;9.07;;;13.60;1.00;;;;;;6199683;28;20251;-56
2022/06/05 01:29:37;;;;;;;9.67;8.87;;;13.60;1.00;;;;;;6167585;28;20320;-57
2022/06/05 01:32:45;;;;;;;10.37;9.57;;;13.50;1.00;;;;;;6185282;28;20339;-56
2022/06/05 01:36:02;;;;;;;9.97;9.17;;;13.40;1.00;;;;;;6182931;28;20312;-53
2022/06/05 01:39:09;;;;;;;10.97;9.90;;;13.40;1.00;;;;;;6184627;28;20685;-55
2022/06/05 01:42:18;;;;;;;11.43;10.33;;;13.40;1.00;;;;;;6181891;28;20738;-57
2022/06/05 01:45:25;;;;;;;14.40;10.93;;;13.30;1.00;;;;;;6198799;28;20656;-55
2022/06/05 01:48:40;;;;;;;11.30;10.43;;;13.20;1.00;;;;;;6182181;28;20236;-55
2022/06/05 01:51:50;;;;;;;11.87;10.87;;;13.20;1.00;;;;;;6183323;28;20860;-57
2022/06/05 01:55:00;;;;;;;10.53;9.63;;;13.20;1.00;;;;;;6179839;28;20379;-55
2022/06/05 01:58:07;;;;;;;10.87;9.97;;;13.10;1.00;;;;;;6176810;28;20240;-56
2022/06/05 02:01:14;;;;;;;9.97;9.07;;;13.10;1.00;;;;;;6178405;28;20512;-55
2022/06/05 02:04:21;;;;;;;10.67;9.67;;;13.00;1.00;;;;;;6185044;28;20232;-56
2022/06/05 02:07:29;;;;;;;11.50;10.40;;;13.00;1.00;;;;;;6188894;28;20709;-56
2022/06/05 02:10:37;;;;;;;11.10;10.10;;;13.00;1.00;;;;;;6173189;28;20239;-56
2022/06/05 02:13:42;;;;;;;11.33;10.23;;;12.90;1.00;;;;;;6191502;28;20383;-54
2022/06/05 02:16:45;;;;;;;9.93;9.10;;;12.90;1.00;;;;;;6194028;28;20243;-56
2022/06/05 02:19:49;;;;;;;12.13;10.93;;;12.90;1.00;;;;;;6193746;28;20319;-56
2022/06/05 02:22:53;;;;;;;11.97;10.60;;;12.90;1.00;;;;;;6188490;28;20323;-58
2022/06/05 02:25:56;;;;;;;10.50;9.70;;;12.80;1.00;;;;;;6191901;28;20616;-55
2022/06/05 02:29:02;;;;;;;10.33;9.53;;;12.80;1.00;;;;;;6173008;28;20315;-57
2022/06/05 02:32:21;;;;;;;11.50;10.50;;;12.80;1.00;;;;;;6184431;28;20236;-56
2022/06/05 02:35:33;;;;;;;10.33;9.53;;;12.80;1.00;;;;;;6182215;28;20310;-56
2022/06/05 02:38:45;;;;;;;10.20;9.43;;;12.80;1.00;;;;;;6164345;28;20419;-56
2022/06/05 02:41:55;;;;;;;10.60;9.70;;;12.70;1.00;;;;;;6183963;28;20237;-56
2022/06/05 02:45:10;;;;;;;10.87;10.03;;;12.80;1.00;;;;;;6188477;28;20234;-55
2022/06/05 02:48:25;;;;;;;12.57;10.40;;;12.70;1.00;;;;;;6190629;28;20332;-57
2022/06/05 02:51:34;;;;;;;11.50;9.83;;;12.70;1.00;;;;;;6198476;28;20313;-56
2022/06/05 02:54:41;;;;;;;11.10;10.13;;;12.70;1.00;;;;;;6170983;28;20244;-55
2022/06/05 02:57:44;;;;;;;10.30;9.53;;;12.70;1.00;;;;;;6195005;28;20734;-56
2022/06/05 03:04:07;;;;;;;9.97;9.27;;;12.70;1.00;;;;;;6185207;28;20232;-55
2022/06/05 03:07:11;;;;;;;10.70;9.80;;;12.70;1.00;;;;;;6184651;28;20318;-57
2022/06/05 03:10:14;;;;;;;12.37;11.03;;;12.70;1.00;;;;;;6168724;28;20291;-57
2022/06/05 03:13:18;;;;;;;11.23;10.20;;;12.70;1.00;;;;;;6190047;28;20317;-57
2022/06/05 03:16:22;;;;;;;11.90;10.77;;;12.80;1.00;;;;;;6196955;28;20231;-56
2022/06/05 03:19:27;;;;;;;10.40;9.60;;;12.80;1.00;;;;;;6178383;28;20232;-55
2022/06/05 03:22:30;;;;;;;11.60;10.40;;;12.80;1.00;;;;;;6178512;28;20362;-54
2022/06/05 03:25:33;;;;;;;12.20;11.13;;;12.70;1.00;;;;;;6198602;28;21704;-56
2022/06/05 03:28:36;;;;;;;11.53;10.53;;;12.70;1.00;;;;;;6183893;28;20622;-56
2022/06/05 03:31:40;;;;;;;10.40;9.50;;;12.70;1.00;;;;;;6181469;28;20990;-55
2022/06/05 03:34:43;;;;;;;10.70;10.00;;;12.70;1.00;;;;;;6185533;28;20294;-55
2022/06/05 03:37:46;;;;;;;10.77;9.77;;;12.70;1.00;;;;;;6187326;28;20240;-56
2022/06/05 03:40:49;;;;;;;11.20;10.30;;;12.70;1.00;;;;;;6168766;28;20915;-57
2022/06/05 03:43:52;;;;;;;11.57;10.63;;;12.70;1.00;;;;;;6177378;28;20744;-57
2022/06/05 03:46:57;;;;;;;11.27;10.37;;;12.80;1.00;;;;;;6192878;28;20235;-58
2022/06/05 03:50:00;;;;;;;11.27;10.20;;;12.80;1.00;;;;;;6150211;28;21074;-56
2022/06/05 03:53:04;;;;;;;10.33;9.73;;;12.80;1.00;;;;;;6153465;28;20326;-55
2022/06/05 03:56:12;;;;;;;10.27;9.37;;;12.80;1.00;;;;;;6184243;28;20238;-55
2022/06/05 03:59:14;;;;;;;10.97;10.07;;;12.80;1.00;;;;;;6174889;28;20423;-55
2022/06/05 04:02:19;;;;;;;10.90;9.90;;;12.80;1.00;;;;;;6182153;28;20306;-56
2022/06/05 04:05:22;;;;;;;10.83;9.93;;;12.90;1.00;;;;;;6186150;28;20394;-57
2022/06/05 04:08:25;;;;;;;10.20;9.50;;;12.90;1.00;;;;;;6183743;28;20484;-56
2022/06/05 04:11:30;;;;;;;10.37;9.63;;;13.00;1.00;;;;;;6182590;28;20459;-56
2022/06/05 04:14:33;;;;;;;11.00;10.03;;;13.00;1.00;;;;;;6178972;28;20370;-58
2022/06/05 04:17:37;;;;;;;11.30;10.23;;;13.00;1.00;;;;;;6179493;28;20318;-57
2022/06/05 04:20:40;;;;;;;10.63;9.90;;;13.10;1.00;;;;;;6190822;28;20239;-56
2022/06/05 04:23:44;;;;;;;11.60;10.60;;;13.10;1.00;;;;;;6185882;28;20949;-55
2022/06/05 04:26:47;;;;;;;9.77;9.03;;;13.20;1.00;;;;;;6197506;28;20291;-56
2022/06/05 04:29:50;;;;;;;10.40;9.60;;;13.20;1.00;;;;;;6170519;28;20523;-55
2022/06/05 04:32:54;;;;;;;11.40;10.23;;;13.20;1.00;;;;;;6186117;28;20335;-55
2022/06/05 04:35:57;;;;;;;11.60;10.50;;;13.30;1.00;;;;;;6181597;28;20327;-56
2022/06/05 04:39:01;;;;;;;10.97;10.00;;;13.30;1.00;;;;;;6184826;28;20656;-56
2022/06/05 04:42:04;;;;;;;10.20;9.33;;;13.50;1.00;;;;;;6183036;28;20232;-57
2022/06/05 04:45:08;;;;;;;10.47;9.57;;;13.60;1.00;;;;;;6184381;28;20228;-55
2022/06/05 04:48:12;;;;;;;10.53;9.73;;;13.60;1.00;;;;;;6177279;28;20772;-56
2022/06/05 04:51:19;;;;;;;10.37;9.57;;;13.60;1.00;;;;;;6184208;28;20232;-54
2022/06/05 04:54:22;;;;;;;11.10;10.13;;;13.80;1.00;;;;;;6165278;28;20335;-55
2022/06/05 04:57:25;;;;;;;10.70;9.87;;;13.90;1.00;;;;;;6178522;28;20533;-58
2022/06/05 05:00:28;;;;;;;10.77;9.77;;;14.10;1.00;;;;;;6173453;28;20725;-55
2022/06/05 05:03:32;;;;;;;10.33;9.53;;;14.40;1.00;;;;;;6181003;28;20371;-57
2022/06/05 05:06:36;;;;;;;10.33;9.60;;;14.70;1.00;;;;;;6182266;28;20403;-56
2022/06/05 05:09:39;;;;;;;10.90;9.07;;;15.10;1.00;;;;;;6172903;28;20259;-56
2022/06/05 05:12:42;;;;;;;9.23;8.63;;;15.20;1.00;;;;;;6193373;28;20251;-57
2022/06/05 05:15:49;;;;;;;9.10;8.50;;;15.50;1.00;;;;;;6183203;28;20549;-57
2022/06/05 05:18:54;;;;;;;10.97;9.97;;;15.80;1.00;;;;;;6182443;28;20238;-57
2022/06/05 05:21:57;;;;;;;9.50;8.80;;;16.00;1.00;;;;;;6183736;28;20536;-56
2022/06/05 05:25:00;;;;;;;9.53;8.77;;;16.20;1.00;;;;;;6192624;28;20250;-54
2022/06/05 05:28:06;;;;;;;8.87;8.17;;;16.70;1.00;;;;;;6186618;28;22568;-56
2022/06/05 05:31:11;;;;;;;9.17;8.47;;;16.90;1.00;;;;;;6186170;28;20327;-56
2022/06/05 05:34:15;;;;;;;9.00;8.40;;;17.30;1.00;;;;;;6179568;28;20705;-57
2022/06/05 05:37:19;;;;;;;9.27;8.47;;;17.70;1.00;;;;;;6181037;28;20263;-56
2022/06/05 05:43:43;;;;;;;8.80;8.13;;;18.00;1.00;;;;;;6184665;28;20251;-56
2022/06/05 05:46:47;;;;;;;9.20;8.60;;;18.30;1.00;;;;;;6186822;28;20239;-57
2022/06/05 05:49:54;;;;;;;8.93;7.90;;;18.50;1.00;;;;;;6181536;28;20228;-57
2022/06/05 05:52:57;;;;;;;8.10;7.40;;;18.70;1.00;;;;;;6173942;28;20768;-56
2022/06/05 05:56:06;;;;;;;8.63;7.93;;;18.90;1.00;;;;;;6187436;28;20857;-56
2022/06/05 05:59:09;;;;;;;8.60;8.10;;;19.10;1.00;;;;;;6185747;28;20259;-56
2022/06/05 06:02:18;;;;;;;8.40;7.70;;;19.40;1.00;;;;;;6183362;28;20398;-57
2022/06/05 06:05:23;;;;;;;8.50;7.73;;;19.50;1.00;;;;;;6186445;28;20351;-56
2022/06/05 06:08:26;;;;;;;8.40;7.67;;;19.70;1.00;;;;;;6174510;28;20456;-57
2022/06/05 06:11:29;;;;;;;7.80;7.30;;;20.10;1.00;;;;;;6182719;28;20239;-57
2022/06/05 06:14:33;;;;;;;8.63;7.97;;;20.40;1.00;;;;;;6183387;28;20856;-57
2022/06/05 06:17:35;;;;;;;8.33;7.60;;;20.70;1.00;;;;;;6166666;28;20403;-57
2022/06/05 06:20:40;;;;;;;8.73;7.97;;;20.90;1.00;;;;;;6176425;28;20396;-56
2022/06/05 06:23:43;;;;;;;8.80;8.10;;;21.30;1.00;;;;;;6168290;28;20889;-55
2022/06/05 06:26:46;;;;;;;8.87;8.30;;;21.50;1.00;;;;;;6164964;28;20375;-57
2022/06/05 06:29:49;;;;;;;8.63;8.03;;;21.70;1.00;;;;;;6184090;28;20246;-56
2022/06/05 06:32:52;;;;;;;8.87;8.20;;;21.70;1.00;;;;;;6171972;28;20371;-56
2022/06/05 06:35:56;;;;;;;9.80;9.10;;;21.90;1.00;;;;;;6189791;28;20276;-56
2022/06/05 06:39:00;;;;;;;8.73;8.17;;;21.90;1.00;;;;;;6174383;28;20852;-53
2022/06/05 06:42:04;;;;;;;9.20;8.50;;;22.20;1.00;;;;;;6183867;28;20371;-56
2022/06/05 06:45:08;;;;;;;9.27;8.57;;;22.30;1.00;;;;;;6187120;28;20521;-57
2022/06/05 06:48:11;;;;;;;9.43;8.67;;;22.30;1.00;;;;;;6177734;28;20439;-55
2022/06/05 06:51:17;;;;;;;8.87;8.37;;;22.20;1.00;;;;;;6167836;28;20314;-55
2022/06/05 06:54:20;;;;;;;8.80;8.03;;;22.20;1.00;;;;;;6189024;28;20231;-56
2022/06/05 06:57:23;;;;;;;9.40;8.80;;;22.40;1.00;;;;;;6171834;28;20302;-56
2022/06/05 07:00:26;;;;;;;8.87;8.27;;;22.60;1.00;;;;;;6176044;28;20802;-55
2022/06/05 07:03:29;;;;;;;9.10;8.23;;;22.80;1.00;;;;;;6183868;28;20348;-56
2022/06/05 07:06:33;;;;;;;8.50;8.00;;;22.90;1.00;;;;;;6178998;28;20319;-58
2022/06/05 07:09:36;;;;;;;9.00;8.30;;;22.70;1.00;;;;;;6181648;28;20526;-56
2022/06/05 07:12:39;;;;;;;9.40;8.57;;;22.70;1.00;;;;;;6187541;28;20242;-57
2022/06/05 07:15:42;;;;;;;8.83;8.10;;;22.60;1.00;;;;;;6185380;28;20327;-57
2022/06/05 07:18:46;;;;;;;8.73;8.00;;;22.70;1.00;;;;;;6177935;28;20255;-56
2022/06/05 07:21:50;;;;;;;8.43;7.80;;;22.80;1.00;;;;;;6182597;28;20247;-56
2022/06/05 07:24:53;;;;;;;9.17;8.50;;;22.80;1.00;;;;;;6168484;28;20236;-56
2022/06/05 07:27:56;;;;;;;9.63;8.93;;;22.70;1.00;;;;;;6184507;28;20386;-55
2022/06/05 07:31:03;;;;;;;8.87;8.13;;;22.90;1.00;;;;;;6179324;28;20294;-58
2022/06/05 07:34:08;;;;;;;9.93;9.27;;;23.10;1.00;;;;;;6190673;28;20351;-56
2022/06/05 07:37:13;;;;;;;10.17;9.47;;;22.90;1.00;;;;;;6189775;28;20240;-55
2022/06/05 07:40:17;;;;;;;8.40;7.80;;;22.90;1.00;;;;;;6183187;28;20275;-56
2022/06/05 07:43:21;;;;;;;8.40;7.80;;;22.90;1.00;;;;;;6192561;28;20700;-56
2022/06/05 07:46:24;;;;;;;7.93;7.23;;;22.80;1.00;;;;;;6185872;28;20287;-56
2022/06/05 07:49:27;;;;;;;8.80;8.07;;;22.80;1.00;;;;;;6178918;28;20244;-55
2022/06/05 07:55:52;;;;;;;7.63;7.00;;;22.80;1.00;;;;;;6172399;28;20319;-55
2022/06/05 07:58:55;;;;;;;7.90;7.30;;;22.80;1.00;;;;;;6194372;28;20323;-57
2022/06/05 08:02:20;;;;;;;7.10;6.70;;;22.60;1.00;;;;;;6182131;28;20240;-56
2022/06/05 08:05:23;;;;;;;6.60;6.27;;;22.60;1.00;;;;;;6176078;28;20396;-55
2022/06/05 08:08:27;;;;;;;7.87;7.33;;;22.50;1.00;;;;;;6178350;28;20343;-56
2022/06/05 08:11:30;;;;;;;8.23;7.67;;;22.50;1.00;;;;;;6178420;28;20235;-56
2022/06/05 08:14:35;;;;;;;7.10;6.53;;;22.60;1.00;;;;;;6186383;28;20314;-55
2022/06/05 08:17:38;;;;;;;7.73;7.33;;;22.50;1.00;;;;;;6178572;28;20729;-57
2022/06/05 08:20:41;;;;;;;7.27;6.77;;;22.50;1.00;;;;;;6188268;28;20328;-56
2022/06/05 08:23:46;;;;;;;6.47;6.17;;;22.30;1.00;;;;;;6196009;28;20231;-55
2022/06/05 08:26:49;;;;;;;6.53;6.10;;;22.40;1.00;;;;;;6192171;28;20716;-55
2022/06/05 08:29:55;;;;;;;6.77;6.30;;;22.50;1.00;;;;;;6185401;28;20311;-56
2022/06/05 08:32:59;;;;;;;5.70;5.30;;;22.60;1.00;;;;;;6192544;28;20239;-55
2022/06/05 08:36:02;;;;;;;5.50;5.30;;;22.70;1.00;;;;;;6182702;28;20314;-57
2022/06/05 08:42:39;;;;;;;5.90;5.70;;;23.00;1.00;;;;;;6183371;28;20248;-56
2022/06/05 08:45:49;;;;;;;6.10;5.77;;;23.10;1.00;;;;;;6188160;28;20808;-57
2022/06/05 08:48:57;;;;;;;5.23;4.93;;;23.20;1.00;;;;;;6185920;28;20244;-58
2022/06/05 08:52:06;;;;;;;6.10;4.87;;;23.40;1.00;;;;;;6155184;28;20319;-55
2022/06/05 08:55:16;;;;;;;5.67;5.23;;;23.60;1.00;;;;;;6195961;28;20311;-56
2022/06/05 08:58:27;;;;;;;5.43;5.23;;;23.60;1.00;;;;;;6182578;28;20236;-56
2022/06/05 09:01:37;;;;;;;4.37;4.27;;;23.80;1.00;;;;;;6183913;28;20334;-56
2022/06/05 09:04:48;;;;;;;5.30;4.90;;;24.10;1.00;;;;;;6185110;28;20233;-56
2022/06/05 09:07:53;;;;;;;4.80;4.50;;;24.30;1.00;;;;;;6181501;28;20733;-56
2022/06/05 09:11:02;;;;;;;4.17;4.07;;;24.50;1.00;;;;;;6189082;28;20321;-56
2022/06/05 09:14:30;;;;;;;4.60;4.50;;;24.70;1.00;;;;;;6184007;28;20247;-57
2022/06/05 09:17:34;;;;;;;5.30;5.20;;;24.90;1.00;;;;;;6179962;28;20323;-56
2022/06/05 09:20:46;;;;;;;5.30;5.00;;;25.00;1.00;;;;;;6175131;28;20387;-56
2022/06/05 09:24:06;;;;;;;5.20;4.90;;;25.00;1.00;;;;;;6182244;28;20290;-56
2022/06/05 09:27:25;;;;;;;4.70;4.53;;;25.10;1.00;;;;;;6194996;28;20236;-57
2022/06/05 09:30:33;;;;;;;4.70;4.60;;;25.20;1.00;;;;;;6182100;28;20315;-55
2022/06/05 09:33:39;;;;;;;5.90;5.60;;;25.20;1.00;;;;;;6185110;28;20330;-56
2022/06/05 09:36:54;;;;;;;5.27;4.97;;;25.10;1.00;;;;;;6190233;28;20239;-57
2022/06/05 09:40:01;;;;;;;4.97;4.77;;;25.10;1.00;;;;;;6186258;28;20662;-58
2022/06/05 09:43:40;;;;;;;4.90;4.73;;;25.10;1.00;;;;;;6180126;28;20674;-56
2022/06/05 09:46:58;;;;;;;5.07;4.90;;;25.00;1.00;;;;;;6192453;28;20279;-55
2022/06/05 09:50:05;;;;;;;5.17;4.97;;;25.10;1.00;;;;;;6182641;28;20312;-56
2022/06/05 09:53:09;;;;;;;5.00;4.80;;;25.10;1.00;;;;;;6186830;28;20382;-56
2022/06/05 09:56:24;;;;;;;5.17;5.00;;;25.20;1.00;;;;;;6181603;28;20378;-56
2022/06/05 09:59:33;;;;;;;5.23;5.03;;;25.30;1.00;;;;;;6174089;28;20286;-56
2022/06/05 10:02:38;;;;;;;5.50;5.10;;;25.40;1.00;;;;;;6184547;28;20233;-57
2022/06/05 10:05:45;;;;;;;6.23;5.83;;;25.30;1.00;;;;;;6187154;28;20453;-57
2022/06/05 10:08:54;;;;;;;6.03;5.63;;;25.20;1.00;;;;;;6182552;28;20631;-58
2022/06/05 10:12:00;;;;;;;5.90;5.60;;;25.30;1.00;;;;;;6186150;28;20228;-56
2022/06/05 10:15:07;;;;;;;5.57;5.27;;;25.40;1.00;;;;;;6189740;28;20317;-56
2022/06/05 10:18:18;;;;;;;5.63;5.33;;;25.20;1.00;;;;;;6186233;28;20233;-56
2022/06/05 10:21:23;;;;;;;5.43;5.23;;;25.40;1.00;;;;;;6188923;28;20784;-55
2022/06/05 10:24:31;;;;;;;4.90;4.80;;;25.60;1.00;;;;;;6178436;28;20318;-54
2022/06/05 10:27:36;;;;;;;5.80;5.60;;;25.70;1.00;;;;;;6190105;28;20331;-57
2022/06/05 10:30:56;;;;;;;5.87;5.47;;;25.90;1.00;;;;;;6177544;28;20318;-55
2022/06/05 10:34:15;;;;;;;5.80;5.60;;;26.00;1.00;;;;;;6180799;28;20450;-55
2022/06/05 10:37:24;;;;;;;5.77;5.53;;;25.90;1.00;;;;;;6180031;28;20679;-56
2022/06/05 10:40:33;;;;;;;6.33;6.00;;;26.00;1.00;;;;;;6182034;28;20250;-55
2022/06/05 10:43:39;;;;;;;6.80;6.47;;;26.00;1.00;;;;;;6187301;28;20330;-56
2022/06/05 10:46:55;;;;;;;6.30;5.90;;;26.10;1.00;;;;;;6185995;28;20243;-55
2022/06/05 10:50:07;;;;;;;6.43;6.13;;;26.20;1.00;;;;;;6187334;28;20587;-55
2022/06/05 10:53:17;;;;;;;7.23;6.57;;;26.30;1.00;;;;;;6183124;28;20254;-56
2022/06/05 10:56:31;;;;;;;6.93;6.27;;;26.20;1.00;;;;;;6184497;28;20326;-57
2022/06/05 10:59:51;;;;;;;5.97;5.77;;;26.30;1.00;;;;;;6182749;28;20252;-55
2022/06/05 11:03:11;;;;;;;7.23;6.73;;;26.40;1.00;;;;;;6185126;28;21028;-56
2022/06/05 11:06:36;;;;;;;6.27;6.07;;;26.40;1.00;;;;;;6187357;28;20358;-56
2022/06/05 11:09:47;;;;;;;7.37;6.63;;;26.50;1.00;;;;;;6161511;28;20232;-56
2022/06/05 11:16:32;;;;;;;7.03;6.63;;;26.70;1.00;;;;;;6194222;28;20402;-55
2022/06/05 11:19:43;;;;;;;6.70;6.40;;;26.50;1.00;;;;;;6179685;28;20357;-54
2022/06/05 11:22:56;;;;;;;6.67;6.37;;;26.50;1.00;;;;;;6183683;28;20382;-55
2022/06/05 11:26:06;;;;;;;7.33;6.97;;;26.60;1.00;;;;;;6195619;28;20271;-55
2022/06/05 11:29:21;;;;;;;6.70;6.40;;;26.80;1.00;;;;;;6184734;28;20252;-57
2022/06/05 11:32:40;;;;;;;6.83;6.43;;;26.80;1.00;;;;;;6185949;28;20358;-56
2022/06/05 11:36:06;;;;;;;7.37;6.97;;;26.60;1.00;;;;;;6181064;28;20276;-56
2022/06/05 11:39:25;;;;;;;6.13;5.93;;;26.50;1.00;;;;;;6184386;28;20612;-55
2022/06/05 11:42:32;;;;;;;6.70;6.40;;;26.60;1.00;;;;;;6194705;28;20239;-55
2022/06/05 11:45:45;;;;;;;6.53;6.17;;;26.80;1.00;;;;;;6189952;28;20324;-55
2022/06/05 11:48:56;;;;;;;6.77;6.23;;;26.90;1.00;;;;;;6188086;28;20236;-57
2022/06/05 11:52:06;;;;;;;6.50;5.87;;;27.00;1.00;;;;;;6190507;28;20228;-58
2022/06/05 11:55:24;;;;;;;7.10;6.50;;;27.10;1.00;;;;;;6188296;28;20290;-55
2022/06/05 11:58:38;;;;;;;6.47;6.27;;;27.20;1.00;;;;;;6183752;28;20269;-58
2022/06/05 12:01:46;;;;;;;7.13;6.73;;;27.10;1.00;;;;;;6177483;28;20244;-53
2022/06/05 12:04:56;;;;;;;7.13;6.93;;;27.10;1.00;;;;;;6192666;28;20318;-56
2022/06/05 12:08:04;;;;;;;7.20;6.67;;;27.30;1.00;;;;;;6183598;28;20787;-54
2022/06/05 12:11:21;;;;;;;6.30;6.17;;;27.40;1.00;;;;;;6183682;28;20244;-54
2022/06/05 12:14:29;;;;;;;6.33;5.83;;;27.40;1.00;;;;;;6178158;28;20319;-56
2022/06/05 12:17:39;;;;;;;6.20;5.90;;;27.40;1.00;;;;;;6192507;28;20675;-55
2022/06/05 12:20:49;;;;;;;6.47;6.27;;;27.50;1.00;;;;;;6185935;28;20617;-58
2022/06/05 12:24:00;;;;;;;5.93;5.70;;;27.40;1.00;;;;;;6187627;28;20239;-55
2022/06/05 12:27:12;;;;;;;6.63;6.23;;;27.50;1.00;;;;;;6194185;28;20371;-55
2022/06/05 12:30:23;;;;;;;5.97;5.67;;;27.60;1.00;;;;;;6183445;28;20374;-56
2022/06/05 12:33:34;;;;;;;6.77;6.37;;;27.70;1.00;;;;;;6186977;28;20243;-55
2022/06/05 12:36:41;;;;;;;6.57;6.17;;;27.80;1.00;;;;;;6187952;28;20240;-56
2022/06/05 12:39:48;;;;;;;6.80;6.23;;;27.80;1.00;;;;;;6183718;28;20740;-55
2022/06/05 12:42:58;;;;;;;5.63;5.43;;;28.00;1.00;;;;;;6185052;28;20537;-54
2022/06/05 12:46:12;;;;;;;5.83;5.60;;;28.10;1.00;;;;;;6197210;28;20537;-57
2022/06/05 12:49:31;;;;;;;5.50;5.30;;;28.10;1.00;;;;;;6181595;28;20232;-55
2022/06/05 12:52:39;;;;;;;6.53;6.20;;;28.10;1.00;;;;;;6179337;28;20815;-55
2022/06/05 12:55:47;;;;;;;6.30;6.00;;;28.20;1.00;;;;;;6186805;28;20227;-56
2022/06/05 12:58:56;;;;;;;5.97;5.77;;;28.30;1.00;;;;;;6185237;28;20276;-61
2022/06/05 13:02:06;;;;;;;6.30;6.00;;;28.50;1.00;;;;;;6173726;28;20224;-55
2022/06/05 13:05:22;;;;;;;6.23;6.00;;;28.60;1.00;;;;;;6184111;28;20629;-56
2022/06/05 13:08:31;;;;;;;6.67;6.30;;;28.40;1.00;;;;;;6179006;28;20729;-56
2022/06/05 13:11:38;;;;;;;7.07;6.57;;;28.50;1.00;;;;;;6186159;28;20359;-54
2022/06/05 13:14:54;;;;;;;6.13;5.97;;;28.50;1.00;;;;;;6191591;28;20236;-56
2022/06/05 13:18:03;;;;;;;6.93;6.63;;;28.50;1.00;;;;;;6186784;28;20240;-55
2022/06/05 13:21:17;;;;;;;6.43;6.17;;;28.50;1.00;;;;;;6183800;28;20323;-58
2022/06/05 13:24:30;;;;;;;7.13;6.53;;;28.50;1.00;;;;;;6185268;28;20303;-57
2022/06/05 13:27:49;;;;;;;7.23;6.93;;;28.50;1.00;;;;;;6184137;28;20244;-56
2022/06/05 13:30:59;;;;;;;8.43;6.77;;;28.30;1.00;;;;;;6181971;28;20511;-57
2022/06/05 13:34:11;;;;;;;7.10;6.80;;;28.40;1.00;;;;;;6190822;28;20236;-55
2022/06/05 13:37:19;;;;;;;7.57;7.27;;;28.40;1.00;;;;;;6173591;28;20244;-56
2022/06/05 13:40:36;;;;;;;6.83;6.47;;;28.40;1.00;;;;;;6187612;28;20227;-55
2022/06/05 13:43:41;;;;;;;6.33;6.20;;;28.50;1.00;;;;;;6195005;28;20321;-56
2022/06/05 13:47:00;;;;;;;7.30;6.90;;;28.40;1.00;;;;;;6189863;28;20243;-56
2022/06/05 13:50:22;;;;;;;7.63;7.23;;;28.40;1.00;;;;;;6181034;28;20435;-58
2022/06/05 13:53:32;;;;;;;6.50;6.00;;;28.40;1.00;;;;;;6186917;28;20275;-55
2022/06/05 13:56:44;;;;;;;6.40;6.20;;;28.50;1.00;;;;;;6188860;28;20252;-55
2022/06/05 13:59:50;;;;;;;6.73;6.50;;;28.50;1.00;;;;;;6181489;28;20262;-56
2022/06/05 14:03:06;;;;;;;7.63;7.00;;;28.70;1.00;;;;;;6178891;28;20297;-57
2022/06/05 14:06:18;;;;;;;6.33;6.13;;;28.70;1.00;;;;;;6174209;28;20237;-55
2022/06/05 14:09:41;;;;;;;6.63;6.27;;;28.80;1.00;;;;;;6177823;28;20310;-55
2022/06/05 14:12:48;;;;;;;6.77;6.23;;;28.80;1.00;;;;;;6177915;28;20738;-55
2022/06/05 14:15:53;;;;;;;6.20;5.90;;;28.90;1.00;;;;;;6192141;28;20289;-56
2022/06/05 14:19:00;;;;;;;7.80;7.40;;;29.00;1.00;;;;;;6186198;28;20475;-57
2022/06/05 14:22:07;;;;;;;7.20;6.80;;;29.20;1.00;;;;;;6177850;28;20507;-55
2022/06/05 14:25:20;;;;;;;7.65;7.35;;;29.40;1.00;;;;;;6192434;28;20232;-55
2022/06/05 14:28:24;;;;;;;6.55;6.32;;;29.50;1.00;;;;;;6183380;28;20324;-57
2022/06/05 14:31:27;;;;;;;6.97;6.78;;;29.50;1.00;;;;;;6184045;28;20389;-56
2022/06/05 14:34:38;;;;;;;6.68;6.28;;;29.60;1.00;;;;;;6184428;28;20326;-56
2022/06/05 14:37:47;;;;;;;7.00;6.55;;;29.50;1.00;;;;;;6178951;28;20240;-58
2022/06/05 14:40:59;;;;;;;6.60;6.30;;;29.40;1.00;;;;;;6179759;28;20567;-55
2022/06/05 14:44:06;;;;;;;6.82;6.22;;;29.30;1.00;;;;;;6179637;28;20374;-56
2022/06/05 14:47:16;;;;;;;7.07;6.77;;;29.10;1.00;;;;;;6184183;28;20325;-56
2022/06/05 14:50:24;;;;;;;7.00;6.60;;;29.00;1.00;;;;;;6175763;28;20291;-56
2022/06/05 14:53:39;;;;;;;6.60;6.30;;;29.10;1.00;;;;;;6187203;28;20311;-57
2022/06/05 15:00:13;;;;;;;7.15;6.85;;;29.30;1.00;;;;;;6186426;28;20270;-55
2022/06/05 15:03:26;;;;;;;6.70;6.50;;;29.30;1.00;;;;;;6183250;28;20251;-55
2022/06/05 15:06:35;;;;;;;6.72;6.53;;;29.40;1.00;;;;;;6187698;28;20236;-57
2022/06/05 15:09:44;;;;;;;6.45;6.15;;;29.30;1.00;;;;;;6183309;28;20374;-54
2022/06/05 15:12:51;;;;;;;11.68;10.50;;;29.30;1.00;;;;;;6176626;28;20436;-55
2022/06/05 15:16:02;;;;;;;7.32;6.93;;;29.40;1.00;;;;;;6190901;28;20240;-58
2022/06/05 15:19:08;;;;;;;8.35;7.97;;;29.30;1.00;;;;;;6180989;28;20239;-58
2022/06/05 15:22:31;;;;;;;7.50;7.13;;;29.30;1.00;;;;;;6174675;28;20319;-54
2022/06/05 15:25:40;;;;;;;14.15;12.85;;;29.30;1.00;;;;;;6183984;28;20242;-56
2022/06/05 15:28:53;;;;;;;9.05;8.55;;;29.40;1.00;;;;;;6172056;28;20406;-54
2022/06/05 15:32:01;;;;;;;6.78;6.45;;;29.40;1.00;;;;;;6184210;28;20232;-57
2022/06/05 15:35:15;;;;;;;8.90;8.27;;;29.40;1.00;;;;;;6185437;28;20259;-55
2022/06/05 15:38:42;;;;;;;12.70;11.57;;;29.40;1.00;;;;;;6184813;28;20243;-55
2022/06/05 15:42:02;;;;;;;7.43;7.03;;;29.40;1.00;;;;;;6182986;28;20318;-53
2022/06/05 15:45:25;;;;;;;12.90;12.00;;;29.30;1.00;;;;;;6194941;28;20243;-55
2022/06/05 15:48:49;;;;;;;10.48;9.80;;;29.30;1.00;;;;;;6188422;28;20645;-55
2022/06/05 15:51:59;;;;;;;7.20;6.85;;;29.20;1.00;;;;;;6183453;28;20330;-54
2022/06/05 15:55:17;;;;;;;5.72;5.60;;;29.20;1.00;;;;;;6187852;28;20235;-54
2022/06/05 15:58:43;;;;;;;10.70;10.00;;;29.10;1.00;;;;;;6175451;28;20328;-56
2022/06/05 16:01:52;;;;;;;6.35;6.25;;;29.00;1.00;;;;;;6179642;28;20237;-53
2022/06/05 16:05:01;;;;;;;6.28;5.88;;;29.00;1.00;;;;;;6189170;28;20676;-56
2022/06/05 16:08:12;;;;;;;6.23;6.00;;;28.90;1.00;;;;;;6185019;28;20325;-57
2022/06/05 16:11:21;;;;;;;6.70;6.50;;;28.80;1.00;;;;;;6190143;28;20375;-54
2022/06/05 16:14:50;;;;;;;6.93;6.53;;;28.70;1.00;;;;;;6190012;28;20782;-55
2022/06/05 16:18:05;;;;;;;7.00;6.20;;;28.50;1.00;;;;;;6185923;28;20325;-56
2022/06/05 16:21:24;;;;;;;6.37;6.07;;;28.50;1.00;;;;;;6196129;28;20726;-57
2022/06/05 16:24:36;;;;;;;7.00;6.70;;;28.40;1.00;;;;;;6188168;28;20232;-55
2022/06/05 16:27:49;;;;;;;6.50;6.00;;;28.40;1.00;;;;;;6179856;28;20248;-56
2022/06/05 16:31:27;;;;;;;5.83;5.50;;;28.30;1.00;;;;;;6191854;28;20321;-55
2022/06/05 16:38:04;;;;;;;5.97;5.67;;;28.20;1.00;;;;;;6185570;28;20413;-56
2022/06/05 16:41:09;;;;;;;6.37;6.00;;;28.20;1.00;;;;;;6190249;28;20232;-54
2022/06/05 16:44:19;;;;;;;5.93;5.53;;;28.20;1.00;;;;;;6193603;28;20607;-55
2022/06/05 16:47:42;;;;;;;6.33;6.13;;;27.90;1.00;;;;;;6193358;28;20338;-57
2022/06/05 16:50:55;;;;;;;7.00;6.50;;;27.90;1.00;;;;;;6183013;28;20243;-56
2022/06/05 16:54:20;;;;;;;6.57;6.27;;;27.80;1.00;;;;;;6180352;28;20311;-56